Time;durP1;ratioP1;P1;durP2;ratioP2;P2;SDS_P1;SDS_P2;PMS_P1;PMS_P2;Temp;Humidity;BMP_temperature;BMP_pressure;BME280_temperature;BME280_humidity;BME280_pressure;Samples;Min_cycle;Max_cycle;Signal;HPM_P1;HPM_P2
2022/04/17 06:04:13;;;;;;;1.88;1.77;;;16.50;23.40;;;;;;5024767;23;20236;-69
2022/04/17 06:06:40;;;;;;;2.15;2.00;;;16.50;21.40;;;;;;4936390;29;20215;-69
2022/04/17 06:09:07;;;;;;;2.20;2.03;;;14.50;22.90;;;;;;4936475;29;20204;-70
2022/04/17 06:11:34;;;;;;;1.73;1.63;;;14.30;22.20;;;;;;4936340;29;20336;-70
2022/04/17 06:14:01;;;;;;;1.67;1.60;;;14.50;22.60;;;;;;4919928;29;20315;-70
2022/04/17 06:16:28;;;;;;;1.42;1.33;;;15.20;23.00;;;;;;4917917;29;20205;-66
2022/04/17 06:18:55;;;;;;;1.30;1.30;;;16.10;22.80;;;;;;4918868;29;20205;-66
2022/04/17 06:21:23;;;;;;;1.88;1.77;;;17.10;20.60;;;;;;4920906;29;20211;-66
2022/04/17 06:23:50;;;;;;;1.65;1.55;;;17.20;20.00;;;;;;4920746;29;20259;-66
2022/04/17 06:26:17;;;;;;;1.50;1.42;;;17.40;20.90;;;;;;4920764;29;20251;-66
2022/04/17 06:28:44;;;;;;;1.85;1.75;;;17.50;21.50;;;;;;4920691;29;20280;-66
2022/04/17 06:31:10;;;;;;;2.45;2.00;;;18.30;20.40;;;;;;4920924;29;20299;-64
2022/04/17 06:33:37;;;;;;;1.25;1.25;;;16.60;24.40;;;;;;4920373;29;20315;-64
2022/04/17 06:36:05;;;;;;;1.92;1.60;;;17.20;24.10;;;;;;4920677;29;20243;-64
2022/04/17 06:38:33;;;;;;;1.75;1.65;;;16.90;24.00;;;;;;4921314;29;20204;-63
2022/04/17 06:41:00;;;;;;;1.65;1.55;;;17.60;21.30;;;;;;4920456;29;20295;-64
2022/04/17 06:43:27;;;;;;;2.40;1.90;;;17.00;22.20;;;;;;4921253;29;20252;-64
2022/04/17 06:45:54;;;;;;;1.85;1.60;;;16.80;21.10;;;;;;4920702;29;20294;-63
2022/04/17 06:48:22;;;;;;;1.90;1.77;;;16.60;21.50;;;;;;4920032;29;20654;-64
2022/04/17 06:50:51;;;;;;;1.55;1.50;;;16.30;21.70;;;;;;4920303;29;20285;-64
2022/04/17 06:53:18;;;;;;;1.10;1.10;;;17.00;22.20;;;;;;4920178;29;20232;-64
2022/04/17 06:55:47;;;;;;;1.38;1.38;;;17.90;20.60;;;;;;4920269;29;20291;-64
2022/04/17 06:58:14;;;;;;;1.52;1.42;;;18.20;20.20;;;;;;4920164;29;20232;-69
2022/04/17 07:00:41;;;;;;;1.73;1.50;;;18.70;21.40;;;;;;4920105;29;20284;-68
2022/04/17 07:03:08;;;;;;;1.17;1.17;;;;;;;;;;4919983;29;20224;-68
2022/04/17 07:05:35;;;;;;;1.73;1.63;;;19.90;18.70;;;;;;4919850;29;20699;-68
2022/04/17 07:08:04;;;;;;;1.42;1.30;;;18.40;19.30;;;;;;4920077;29;20223;-68
2022/04/17 07:10:32;;;;;;;1.55;1.45;;;18.30;20.60;;;;;;4919964;29;20209;-69
2022/04/17 07:13:01;;;;;;;1.30;1.30;;;18.80;19.90;;;;;;4919452;29;20747;-69
2022/04/17 07:15:28;;;;;;;1.83;1.70;;;19.50;18.80;;;;;;4919559;29;20211;-68
2022/04/17 07:17:56;;;;;;;1.65;1.65;;;17.70;20.20;;;;;;4919682;29;20209;-68
2022/04/17 07:20:24;;;;;;;2.70;1.35;;;18.10;19.50;;;;;;4920808;29;20557;-66
2022/04/17 07:22:51;;;;;;;1.35;1.33;;;19.00;19.10;;;;;;4919794;29;20316;-66
2022/04/17 07:25:19;;;;;;;1.80;1.70;;;19.00;20.20;;;;;;4919782;29;20300;-67
2022/04/17 07:27:48;;;;;;;1.40;1.33;;;19.90;18.80;;;;;;4919429;29;20668;-66
2022/04/17 07:30:18;;;;;;;1.88;1.77;;;19.30;18.20;;;;;;4918275;29;20205;-67
2022/04/17 07:32:47;;;;;;;1.40;1.30;;;18.90;18.60;;;;;;4919344;29;20331;-66
2022/04/17 07:35:15;;;;;;;1.40;1.30;;;17.50;19.50;;;;;;4919482;29;20205;-66
2022/04/17 07:37:47;;;;;;;1.55;1.45;;;17.40;20.10;;;;;;4919048;29;20728;-66
2022/04/17 07:40:15;;;;;;;1.88;1.70;;;17.80;19.90;;;;;;4919503;29;20190;-66
2022/04/17 07:42:43;;;;;;;2.05;1.50;;;18.10;18.30;;;;;;4919553;29;20231;-66
2022/04/17 07:45:11;;;;;;;2.10;1.35;;;18.30;18.50;;;;;;4919065;29;20212;-66
2022/04/17 07:47:40;;;;;;;1.17;1.08;;;18.40;18.50;;;;;;4919296;29;20220;-66
2022/04/17 07:50:08;;;;;;;1.35;1.35;;;18.10;18.90;;;;;;4919298;29;20289;-66
2022/04/17 07:52:35;;;;;;;1.00;1.00;;;18.30;18.10;;;;;;4919116;29;20320;-66
2022/04/17 07:55:03;;;;;;;2.25;1.50;;;18.50;17.30;;;;;;4919206;29;20607;-66
2022/04/17 07:57:31;;;;;;;1.40;1.30;;;18.70;17.20;;;;;;4919121;29;20205;-66
2022/04/17 08:00:02;;;;;;;1.73;1.30;;;17.50;17.90;;;;;;4919214;29;20193;-66
2022/04/17 08:02:39;;;;;;;2.05;1.30;;;16.50;18.20;;;;;;4918764;29;20312;-65
2022/04/17 08:05:09;;;;;;;1.58;1.13;;;16.80;18.70;;;;;;4918713;29;20263;-65
2022/04/17 08:07:36;;;;;;;2.33;1.50;;;15.90;18.70;;;;;;4919487;29;20211;-65
2022/04/17 08:10:03;;;;;;;1.23;1.23;;;14.40;19.10;;;;;;4919021;29;20236;-66
2022/04/17 08:12:30;;;;;;;1.42;1.33;;;14.00;19.40;;;;;;4918635;29;20225;-65
2022/04/17 08:14:57;;;;;;;3.75;1.30;;;14.20;20.00;;;;;;4918906;29;20205;-65
2022/04/17 08:17:24;;;;;;;1.10;1.10;;;13.70;19.70;;;;;;4918311;29;20647;-65
2022/04/17 08:19:51;;;;;;;1.50;1.40;;;13.20;20.90;;;;;;4918324;29;20682;-66
2022/04/17 08:22:19;;;;;;;1.65;1.60;;;12.30;24.30;;;;;;4918301;29;20296;-67
2022/04/17 08:24:46;;;;;;;2.35;1.70;;;11.40;28.40;;;;;;4918292;29;20680;-66
2022/04/17 08:27:13;;;;;;;1.67;1.60;;;11.00;28.30;;;;;;4918657;29;20339;-65
2022/04/17 08:29:40;;;;;;;1.10;1.10;;;10.60;30.90;;;;;;4918158;29;20669;-65
2022/04/17 08:32:07;;;;;;;1.55;1.40;;;10.30;34.90;;;;;;4918240;29;20300;-64
2022/04/17 08:34:34;;;;;;;1.33;1.25;;;10.30;40.50;;;;;;4918295;29;20229;-65
2022/04/17 08:37:01;;;;;;;1.70;1.58;;;10.00;42.60;;;;;;4918096;29;20717;-64
2022/04/17 08:39:29;;;;;;;1.60;1.50;;;9.70;40.50;;;;;;4918531;29;20205;-64
2022/04/17 08:42:00;;;;;;;1.20;1.20;;;9.60;43.10;;;;;;4918047;29;20300;-66
2022/04/17 08:44:27;;;;;;;1.40;1.30;;;9.60;45.50;;;;;;4918329;29;20189;-65
2022/04/17 08:46:54;;;;;;;1.38;1.38;;;9.60;43.40;;;;;;4918046;29;20214;-65
2022/04/17 08:49:24;;;;;;;3.10;1.20;;;9.60;40.60;;;;;;4918457;29;20209;-68
2022/04/17 08:51:53;;;;;;;1.00;1.00;;;9.70;37.00;;;;;;4918133;29;20208;-68
2022/04/17 08:54:22;;;;;;;1.20;1.15;;;9.80;35.40;;;;;;4917957;29;20289;-68
2022/04/17 08:56:50;;;;;;;1.40;1.38;;;10.00;35.00;;;;;;4917884;29;20206;-67
2022/04/17 08:59:17;;;;;;;1.63;1.35;;;10.10;33.90;;;;;;4917950;29;20205;-68
2022/04/17 09:01:44;;;;;;;1.25;1.20;;;10.10;34.30;;;;;;4917849;29;20292;-68
2022/04/17 09:04:11;;;;;;;1.38;1.27;;;10.10;33.80;;;;;;4917584;29;20264;-68
2022/04/17 09:06:39;;;;;;;1.42;1.27;;;10.20;34.20;;;;;;4918140;29;20213;-68
2022/04/17 09:09:07;;;;;;;2.92;1.30;;;10.00;33.30;;;;;;4917675;29;20591;-64
2022/04/17 09:11:34;;;;;;;1.60;1.00;;;10.00;33.00;;;;;;4917968;29;20205;-64
2022/04/17 09:14:05;;;;;;;1.10;1.10;;;10.00;32.90;;;;;;4917579;29;20708;-65
2022/04/17 09:16:35;;;;;;;1.00;0.85;;;10.00;32.40;;;;;;4918153;29;20197;-65
2022/04/17 09:19:13;;;;;;;1.20;1.10;;;10.10;32.80;;;;;;4918184;29;20269;-64
2022/04/17 09:21:41;;;;;;;1.00;1.00;;;10.20;31.30;;;;;;4918156;29;20197;-64
2022/04/17 09:24:16;;;;;;;1.17;1.02;;;10.20;30.40;;;;;;4917528;29;20307;-65
2022/04/17 09:26:51;;;;;;;1.50;1.40;;;10.30;29.90;;;;;;4917649;29;20211;-65
2022/04/17 09:29:20;;;;;;;1.35;1.20;;;10.20;29.60;;;;;;4917995;29;20231;-65
2022/04/17 09:31:49;;;;;;;1.52;1.08;;;10.20;29.60;;;;;;4917777;29;20213;-68
2022/04/17 09:34:16;;;;;;;2.22;1.00;;;10.30;28.00;;;;;;4917091;29;20689;-69
2022/04/17 09:36:43;;;;;;;1.10;1.10;;;10.30;28.30;;;;;;4917890;29;20212;-65
2022/04/17 09:39:15;;;;;;;2.45;1.17;;;10.20;27.50;;;;;;4917621;29;20211;-65
2022/04/17 09:41:58;;;;;;;1.23;1.23;;;10.10;28.50;;;;;;4917528;29;20213;-65
2022/04/17 09:44:45;;;;;;;1.38;1.33;;;10.30;27.00;;;;;;4918043;29;20292;-69
2022/04/17 09:47:16;;;;;;;1.17;1.08;;;10.30;27.00;;;;;;4917540;29;20189;-69
2022/04/17 09:49:54;;;;;;;1.00;1.00;;;10.40;27.30;;;;;;4917606;29;20193;-69
2022/04/17 09:52:22;;;;;;;0.88;0.88;;;10.40;27.90;;;;;;4917804;29;20236;-69
2022/04/17 09:54:50;;;;;;;1.10;1.10;;;10.40;28.40;;;;;;4921234;29;20220;-70
2022/04/17 09:57:27;;;;;;;0.98;0.98;;;10.50;28.40;;;;;;4921166;29;20303;-70
2022/04/17 09:59:56;;;;;;;1.40;1.30;;;10.50;29.00;;;;;;4921572;29;20193;-64
2022/04/17 10:02:24;;;;;;;1.50;1.33;;;10.60;28.80;;;;;;4921590;29;20225;-65
2022/04/17 10:04:52;;;;;;;3.00;1.50;;;10.70;28.00;;;;;;4921013;29;20306;-64
2022/04/17 15:21:35;;;;;;;1.10;1.00;;;12.40;30.00;;;;;;5101197;23;20232;-62
2022/04/17 15:24:02;;;;;;;1.08;1.08;;;12.40;29.60;;;;;;4938465;29;20579;-62
2022/04/17 15:26:29;;;;;;;1.00;1.00;;;12.40;30.50;;;;;;4938809;29;20300;-62
2022/04/17 15:28:56;;;;;;;1.00;1.00;;;12.40;31.70;;;;;;4938591;29;20236;-62
2022/04/17 15:31:22;;;;;;;1.05;1.05;;;12.40;29.90;;;;;;4923939;29;20229;-62
2022/04/17 15:33:49;;;;;;;1.10;1.10;;;12.30;30.10;;;;;;4920054;29;20229;-64
2022/04/17 15:36:17;;;;;;;1.42;1.33;;;12.20;30.80;;;;;;4919271;29;20629;-64
2022/04/17 15:38:46;;;;;;;1.08;1.00;;;12.10;30.80;;;;;;4919614;29;20305;-64
2022/04/17 15:41:14;;;;;;;1.70;1.40;;;12.10;31.10;;;;;;4919465;29;20229;-65
2022/04/17 15:49:10;;;;;;;1.00;1.00;;;12.10;32.80;;;;;;4919733;29;20301;-68
2022/04/17 15:51:37;;;;;;;0.85;0.85;;;12.10;32.90;;;;;;4918042;29;20312;-68
2022/04/17 15:54:06;;;;;;;1.23;1.23;;;12.20;32.70;;;;;;4918867;29;20765;-69
2022/04/17 15:56:34;;;;;;;1.88;1.77;;;12.10;33.00;;;;;;4919432;29;20205;-69
2022/04/17 15:59:01;;;;;;;1.45;1.35;;;12.10;33.50;;;;;;4918993;29;20205;-68
2022/04/17 16:01:28;;;;;;;0.93;0.88;;;12.10;33.50;;;;;;4918754;29;20235;-68
2022/04/17 16:03:54;;;;;;;1.45;1.20;;;12.00;32.90;;;;;;4918902;29;20202;-68
2022/04/17 16:06:21;;;;;;;1.35;1.20;;;11.90;34.00;;;;;;4919140;29;20210;-68
2022/04/17 16:08:49;;;;;;;2.92;1.13;;;11.90;33.90;;;;;;4918938;29;20268;-69
2022/04/17 16:11:17;;;;;;;1.30;1.30;;;11.90;33.60;;;;;;4918448;29;20256;-68
2022/04/17 16:13:44;;;;;;;1.85;1.10;;;11.90;32.80;;;;;;4918338;29;20769;-68
2022/04/17 16:16:11;;;;;;;1.30;1.20;;;11.80;31.80;;;;;;4918449;29;20546;-68
2022/04/17 16:18:39;;;;;;;1.00;1.00;;;11.80;32.10;;;;;;4918400;29;20296;-68
2022/04/17 16:21:07;;;;;;;1.05;1.00;;;11.70;32.10;;;;;;4918341;29;20233;-68
2022/04/17 16:23:34;;;;;;;1.40;1.40;;;11.70;32.70;;;;;;4918568;29;20204;-69
2022/04/17 16:26:00;;;;;;;1.52;1.40;;;11.70;33.00;;;;;;4918651;29;20208;-68
2022/04/17 16:28:29;;;;;;;1.55;1.45;;;11.60;33.30;;;;;;4918480;29;20270;-68
2022/04/17 16:30:56;;;;;;;1.13;1.13;;;11.60;33.60;;;;;;4918656;29;20256;-68
2022/04/17 16:33:23;;;;;;;1.40;1.30;;;11.60;33.40;;;;;;4918474;29;20301;-68
2022/04/17 16:35:50;;;;;;;1.40;1.30;;;11.60;32.90;;;;;;4918171;29;20738;-68
2022/04/17 16:38:17;;;;;;;2.40;1.20;;;11.50;32.30;;;;;;4918308;29;20566;-68
2022/04/17 16:40:44;;;;;;;1.63;1.30;;;11.50;32.50;;;;;;4918976;29;20720;-71
2022/04/17 16:43:11;;;;;;;1.70;1.60;;;11.40;32.90;;;;;;4918385;29;20219;-69
2022/04/17 16:45:39;;;;;;;1.00;1.00;;;11.40;32.90;;;;;;4918396;29;20658;-69
2022/04/17 16:48:06;;;;;;;2.05;1.30;;;11.40;32.90;;;;;;4918294;29;20215;-68
2022/04/17 16:50:33;;;;;;;1.13;1.13;;;11.40;32.90;;;;;;4917810;29;20233;-68
2022/04/17 16:53:00;;;;;;;2.33;1.70;;;11.30;33.30;;;;;;4918189;29;20296;-68
2022/04/17 16:55:27;;;;;;;1.35;1.35;;;11.30;32.20;;;;;;4918735;29;20237;-68
2022/04/17 17:00:39;;;;;;;1.20;1.20;;;11.10;32.50;;;;;;4918096;29;20723;-68
2022/04/17 17:03:06;;;;;;;2.00;1.42;;;11.20;33.00;;;;;;4918934;29;20736;-68
2022/04/17 17:05:33;;;;;;;1.42;1.42;;;11.00;32.90;;;;;;4920233;29;20224;-68
2022/04/17 17:08:00;;;;;;;1.58;1.48;;;11.00;33.10;;;;;;4922241;29;20232;-68
2022/04/17 17:10:27;;;;;;;1.73;1.52;;;10.90;33.10;;;;;;4921686;29;20241;-68
2022/04/17 17:12:54;;;;;;;1.70;1.60;;;10.90;33.40;;;;;;4919545;29;20201;-69
2022/04/17 17:15:21;;;;;;;1.70;1.60;;;10.80;33.20;;;;;;4918126;29;20296;-68
2022/04/17 17:17:49;;;;;;;1.80;1.70;;;10.70;33.10;;;;;;4917824;29;20296;-68
2022/04/17 17:20:18;;;;;;;1.65;1.55;;;10.70;33.30;;;;;;4917835;29;20230;-68
2022/04/17 17:22:45;;;;;;;1.85;1.75;;;10.70;34.10;;;;;;4917782;29;20303;-67
2022/04/17 17:25:12;;;;;;;1.70;1.60;;;10.60;33.70;;;;;;4917767;29;20201;-67
2022/04/17 17:27:39;;;;;;;2.10;2.00;;;10.60;33.90;;;;;;4917559;29;20573;-68
2022/04/17 17:30:06;;;;;;;1.65;1.63;;;10.60;34.20;;;;;;4918190;29;20316;-67
2022/04/17 17:32:33;;;;;;;1.30;1.30;;;10.50;34.40;;;;;;4917668;29;20205;-67
2022/04/17 17:35:04;;;;;;;1.70;1.60;;;10.50;34.40;;;;;;4917716;29;20319;-68
2022/04/17 17:37:32;;;;;;;1.75;1.58;;;10.50;34.70;;;;;;4917976;29;20189;-68
2022/04/17 17:39:59;;;;;;;2.25;1.85;;;10.50;35.30;;;;;;4917819;29;20320;-67
2022/04/17 17:42:26;;;;;;;2.00;1.90;;;10.40;35.50;;;;;;4917642;29;20618;-68
2022/04/17 17:44:55;;;;;;;2.15;1.55;;;10.40;36.00;;;;;;4917981;29;20233;-68
2022/04/17 17:47:22;;;;;;;1.80;1.70;;;10.30;36.10;;;;;;4917781;29;20206;-69
2022/04/17 17:49:48;;;;;;;2.03;1.80;;;10.30;36.30;;;;;;4917573;29;20205;-68
2022/04/17 17:52:17;;;;;;;1.80;1.48;;;10.20;36.50;;;;;;4917422;29;20292;-70
2022/04/17 17:54:48;;;;;;;1.67;1.48;;;10.20;36.50;;;;;;4917505;29;20311;-69
2022/04/17 17:57:15;;;;;;;2.10;1.30;;;10.20;36.20;;;;;;4917413;29;20558;-69
2022/04/17 17:59:43;;;;;;;1.85;1.67;;;10.10;36.10;;;;;;4917456;29;20201;-68
2022/04/17 18:02:11;;;;;;;2.00;1.80;;;10.00;36.30;;;;;;4917703;29;20288;-68
2022/04/17 18:04:38;;;;;;;1.92;1.80;;;10.00;36.30;;;;;;4917477;29;20208;-67
2022/04/17 18:07:05;;;;;;;1.60;1.50;;;9.90;37.30;;;;;;4917536;29;20209;-67
2022/04/17 18:15:04;;;;;;;2.42;2.25;;;9.70;37.90;;;;;;4919165;29;20263;-67
2022/04/17 18:17:33;;;;;;;2.03;1.70;;;9.70;38.40;;;;;;4920743;29;20576;-67
2022/04/17 18:20:01;;;;;;;2.03;1.77;;;9.70;38.60;;;;;;4920986;29;20267;-64
2022/04/17 18:22:42;;;;;;;2.55;2.35;;;9.60;39.10;;;;;;4920782;29;20215;-63
2022/04/17 18:25:11;;;;;;;2.67;2.47;;;9.60;39.30;;;;;;4920838;29;20186;-63
2022/04/17 18:27:40;;;;;;;2.45;2.00;;;9.50;39.50;;;;;;4920989;29;20205;-66
2022/04/17 18:30:08;;;;;;;4.22;3.55;;;9.50;39.60;;;;;;4920938;29;20225;-66
2022/04/17 18:32:37;;;;;;;2.90;2.70;;;9.40;39.90;;;;;;4920669;29;20212;-66
2022/04/17 18:35:10;;;;;;;2.08;1.98;;;9.40;40.20;;;;;;4921001;29;20236;-65
2022/04/17 18:37:37;;;;;;;2.05;1.95;;;9.30;40.40;;;;;;4920693;29;20535;-66
2022/04/17 18:40:06;;;;;;;6.93;2.28;;;9.30;40.50;;;;;;4920740;29;20913;-66
2022/04/17 18:42:34;;;;;;;3.58;1.88;;;9.20;41.00;;;;;;4920707;29;20212;-66
2022/04/17 18:45:01;;;;;;;1.60;1.60;;;9.20;41.00;;;;;;4920756;29;20233;-65
2022/04/17 18:47:28;;;;;;;2.35;1.73;;;9.10;40.90;;;;;;4920333;29;20737;-66
2022/04/17 18:49:56;;;;;;;2.25;2.15;;;9.10;41.30;;;;;;4920246;29;20639;-67
2022/04/17 18:52:23;;;;;;;2.03;1.92;;;9.00;41.60;;;;;;4920716;29;20205;-66
2022/04/17 18:54:50;;;;;;;2.40;2.20;;;9.00;41.80;;;;;;4920086;29;20251;-67
2022/04/17 18:57:18;;;;;;;2.15;2.05;;;9.00;42.00;;;;;;4920298;29;20206;-67
2022/04/17 18:59:46;;;;;;;2.92;2.13;;;8.90;42.00;;;;;;4920254;29;20213;-66
2022/04/17 19:02:13;;;;;;;2.90;1.98;;;8.90;42.20;;;;;;4920347;29;20236;-67
2022/04/17 19:04:42;;;;;;;4.15;2.05;;;8.80;42.20;;;;;;4920118;29;20229;-67
2022/04/17 19:07:09;;;;;;;2.63;2.42;;;8.80;42.50;;;;;;4920165;29;20225;-67
2022/04/17 19:09:37;;;;;;;2.90;2.58;;;8.80;42.80;;;;;;4920255;29;20212;-66
2022/04/17 19:14:50;;;;;;;1.92;1.83;;;8.70;43.00;;;;;;4919854;29;20221;-67
2022/04/17 19:17:17;;;;;;;2.47;2.05;;;8.60;43.00;;;;;;4919803;29;20744;-67
2022/04/17 19:19:44;;;;;;;1.85;1.73;;;8.60;43.00;;;;;;4919934;29;20201;-68
2022/04/17 19:22:11;;;;;;;2.40;2.20;;;8.60;43.30;;;;;;4919765;29;20223;-68
2022/04/17 19:24:38;;;;;;;2.15;2.05;;;8.50;43.50;;;;;;4919779;29;20292;-67
2022/04/17 19:27:05;;;;;;;3.05;2.28;;;8.40;43.70;;;;;;4919604;29;20209;-67
2022/04/17 19:29:32;;;;;;;3.40;2.92;;;8.40;44.00;;;;;;4919845;29;20209;-66
2022/04/17 19:35:15;;;;;;;3.00;2.58;;;8.20;45.50;;;;;;4879903;29;20219;-67
2022/04/17 19:37:42;;;;;;;2.33;2.22;;;8.10;46.20;;;;;;4880437;29;20191;-67
2022/04/17 19:40:11;;;;;;;2.47;2.38;;;8.00;46.30;;;;;;4901210;29;20229;-66
2022/04/17 19:42:39;;;;;;;2.20;2.00;;;7.90;47.50;;;;;;4919268;29;20684;-67
2022/04/17 19:45:08;;;;;;;1.90;1.80;;;7.80;47.80;;;;;;4919246;29;20202;-65
2022/04/17 19:47:36;;;;;;;1.80;1.70;;;7.70;48.00;;;;;;4919592;29;20232;-69
2022/04/17 19:50:03;;;;;;;2.67;2.10;;;7.70;49.00;;;;;;4919044;29;20774;-66
2022/04/17 19:52:30;;;;;;;1.77;1.67;;;7.60;49.70;;;;;;4922498;29;20216;-66
2022/04/17 19:54:57;;;;;;;1.80;1.65;;;7.60;49.70;;;;;;4924391;29;20253;-67
2022/04/17 19:57:23;;;;;;;1.70;1.60;;;7.50;50.40;;;;;;4923803;29;20193;-65
2022/04/17 19:59:51;;;;;;;2.05;1.75;;;7.40;51.00;;;;;;4927175;29;20239;-67
2022/04/17 20:02:18;;;;;;;1.92;1.90;;;7.40;53.00;;;;;;4927091;29;20205;-67
2022/04/17 20:04:47;;;;;;;2.30;2.10;;;7.30;53.40;;;;;;4928153;29;20241;-67
2022/04/17 20:07:14;;;;;;;2.08;1.98;;;7.30;53.70;;;;;;4925476;29;20229;-67
2022/04/17 20:09:43;;;;;;;1.83;1.73;;;7.30;53.60;;;;;;4925433;29;20217;-66
2022/04/17 20:12:10;;;;;;;2.20;2.10;;;7.20;53.40;;;;;;4925091;29;20721;-67
2022/04/17 20:14:37;;;;;;;2.67;2.27;;;7.20;54.00;;;;;;4925085;29;20220;-67
2022/04/17 20:17:05;;;;;;;2.33;2.15;;;7.20;54.60;;;;;;4925243;29;20622;-67
2022/04/17 20:19:32;;;;;;;3.25;1.67;;;7.20;55.20;;;;;;4925322;29;20208;-67
2022/04/17 20:22:01;;;;;;;1.42;1.33;;;7.10;54.80;;;;;;4923969;29;20570;-67
2022/04/17 20:24:31;;;;;;;2.00;1.75;;;7.10;55.00;;;;;;4924126;29;20205;-67
2022/04/17 20:26:59;;;;;;;1.30;1.30;;;7.00;55.40;;;;;;4924072;29;20201;-65
2022/04/17 20:29:26;;;;;;;0.98;0.98;;;6.90;56.10;;;;;;4923714;29;20260;-66
2022/04/17 20:31:54;;;;;;;1.60;1.60;;;6.90;56.30;;;;;;4923827;29;20315;-66
2022/04/17 20:34:21;;;;;;;1.45;1.45;;;6.80;58.30;;;;;;4923716;29;20212;-66
2022/04/17 20:36:48;;;;;;;1.80;1.70;;;6.80;58.50;;;;;;4923303;29;20229;-66
2022/04/17 20:39:17;;;;;;;1.35;1.25;;;6.70;59.60;;;;;;4924862;29;20231;-67
2022/04/17 20:41:45;;;;;;;1.88;1.77;;;6.70;60.80;;;;;;4924396;29;20240;-66
2022/04/17 20:52:24;;;;;;;2.20;2.10;;;6.60;67.70;;;;;;4918262;29;20188;-67
2022/04/17 20:54:52;;;;;;;2.45;2.25;;;6.60;66.60;;;;;;4918204;29;20227;-67
2022/04/17 20:57:19;;;;;;;1.63;1.52;;;6.60;66.60;;;;;;4918573;29;20290;-67
2022/04/17 20:59:46;;;;;;;2.00;1.90;;;6.60;67.20;;;;;;4918410;29;20205;-66
2022/04/17 21:02:14;;;;;;;2.45;2.35;;;6.50;69.90;;;;;;4918066;29;20696;-67
2022/04/17 21:04:41;;;;;;;2.22;2.00;;;6.50;69.10;;;;;;4918298;29;20201;-66
2022/04/17 21:07:08;;;;;;;2.20;2.00;;;6.50;68.80;;;;;;4918096;29;20703;-65
2022/04/17 21:09:34;;;;;;;2.85;2.00;;;6.60;68.90;;;;;;4918245;29;20206;-66
2022/04/17 21:12:03;;;;;;;1.98;1.88;;;6.60;68.70;;;;;;4918116;29;20296;-65
2022/04/17 21:14:30;;;;;;;2.35;2.15;;;6.60;70.50;;;;;;4917713;29;20748;-66
2022/04/17 21:16:57;;;;;;;1.98;1.60;;;6.60;70.50;;;;;;4917869;29;20701;-66
2022/04/17 21:19:23;;;;;;;1.45;1.45;;;6.50;70.80;;;;;;4917963;29;20296;-66
2022/04/17 21:21:50;;;;;;;2.13;1.90;;;6.50;72.30;;;;;;4917547;29;20340;-66
2022/04/17 21:24:17;;;;;;;3.47;2.00;;;6.40;74.00;;;;;;4917458;29;20710;-66
2022/04/17 21:26:44;;;;;;;2.08;1.98;;;6.40;73.00;;;;;;4917666;29;20204;-66
2022/04/17 21:29:12;;;;;;;1.80;1.70;;;6.40;70.90;;;;;;4917750;29;20645;-66
2022/04/17 21:31:39;;;;;;;1.52;1.40;;;6.40;64.80;;;;;;4917816;29;20225;-66
2022/04/17 21:34:06;;;;;;;2.47;2.28;;;6.40;65.00;;;;;;4919300;29;20659;-65
2022/04/17 21:36:33;;;;;;;2.20;2.10;;;6.40;65.40;;;;;;4917167;29;20311;-64
2022/04/17 21:38:59;;;;;;;2.33;2.20;;;6.40;66.10;;;;;;4917675;29;20237;-63
2022/04/17 21:41:29;;;;;;;2.05;1.95;;;6.40;67.10;;;;;;4917707;29;20225;-63
2022/04/17 21:43:57;;;;;;;1.77;1.67;;;6.40;68.90;;;;;;4917200;29;20610;-64
2022/04/17 21:46:25;;;;;;;1.88;1.77;;;6.30;73.10;;;;;;4917435;29;20208;-64
2022/04/17 21:48:52;;;;;;;1.52;1.52;;;6.20;70.10;;;;;;4916552;29;20265;-64
2022/04/17 21:51:19;;;;;;;1.70;1.70;;;6.10;75.70;;;;;;4917491;29;20308;-65
2022/04/17 21:53:46;;;;;;;1.50;1.40;;;6.00;70.20;;;;;;4917741;29;20635;-64
2022/04/17 21:56:13;;;;;;;1.50;1.40;;;5.90;74.10;;;;;;4917531;29;20236;-64
2022/04/17 21:58:39;;;;;;;1.00;1.00;;;5.80;76.90;;;;;;4917443;29;20201;-64
2022/04/17 22:06:36;;;;;;;0.85;0.85;;;5.40;75.70;;;;;;4917402;29;20181;-65
2022/04/17 22:09:03;;;;;;;1.13;1.13;;;5.20;77.80;;;;;;4917492;29;20307;-65
2022/04/17 22:11:31;;;;;;;1.00;1.00;;;5.10;79.80;;;;;;4916895;29;20580;-64
2022/04/17 22:13:58;;;;;;;0.85;0.85;;;5.00;81.80;;;;;;4917318;29;20359;-64
2022/04/17 22:16:24;;;;;;;1.35;0.82;;;4.80;84.20;;;;;;4917177;29;20321;-65
2022/04/17 22:18:53;;;;;;;0.80;0.80;;;4.80;87.70;;;;;;4917426;29;20205;-64
2022/04/17 22:21:20;;;;;;;0.98;0.98;;;4.70;90.00;;;;;;4918263;29;20323;-65
2022/04/17 22:23:47;;;;;;;0.70;0.70;;;4.60;90.60;;;;;;4918424;29;20249;-65
2022/04/17 22:26:14;;;;;;;0.80;0.80;;;4.60;91.50;;;;;;4918085;29;20285;-65
2022/04/17 22:28:41;;;;;;;1.45;1.45;;;5.00;89.30;;;;;;4917718;29;20573;-66
2022/04/17 22:31:08;;;;;;;2.28;1.80;;;4.50;93.00;;;;;;4916841;29;20316;-66
2022/04/17 22:33:35;;;;;;;2.42;1.60;;;4.60;94.00;;;;;;4917570;29;20208;-66
2022/04/17 22:36:04;;;;;;;1.60;1.60;;;4.60;92.60;;;;;;4917670;29;20695;-66
2022/04/17 22:38:31;;;;;;;1.63;1.52;;;4.60;91.10;;;;;;4917755;29;20241;-66
2022/04/17 22:40:58;;;;;;;1.42;1.20;;;4.60;90.50;;;;;;4917838;29;20320;-66
2022/04/17 22:43:28;;;;;;;1.83;1.73;;;4.60;93.00;;;;;;4917731;29;20212;-67
